Time;durP1;ratioP1;P1;durP2;ratioP2;P2;SDS_P1;SDS_P2;PMS_P1;PMS_P2;Temp;Humidity;BMP_temperature;BMP_pressure;BME280_temperature;BME280_humidity;BME280_pressure;Samples;Min_cycle;Max_cycle;Signal;HPM_P1;HPM_P2
2022/01/02 00:01:00;;;;;;;10.73;5.68;;;11.50;99.90;;;;;;5156269;27;20038;-80
2022/01/02 00:03:47;;;;;;;10.77;5.20;;;11.50;99.90;;;;;;5156208;27;20038;-80
2022/01/02 00:06:33;;;;;;;9.77;5.20;;;11.50;99.90;;;;;;5156128;27;20476;-80
2022/01/02 00:09:32;;;;;;;10.35;5.03;;;11.50;99.90;;;;;;5155538;27;20033;-80
2022/01/02 00:12:24;;;;;;;12.48;5.93;;;11.50;99.90;;;;;;5155610;27;20045;-80
2022/01/02 00:15:11;;;;;;;7.78;4.95;;;11.40;99.90;;;;;;5139846;27;20559;-80
2022/01/02 00:18:07;;;;;;;13.40;5.70;;;11.40;99.90;;;;;;5155917;27;20038;-80
2022/01/02 00:20:52;;;;;;;12.60;6.32;;;11.40;99.90;;;;;;5141573;27;20519;-81
2022/01/02 00:23:59;;;;;;;9.50;5.90;;;11.30;99.90;;;;;;5155830;27;20096;-81
2022/01/02 00:26:45;;;;;;;10.90;5.80;;;11.40;99.90;;;;;;5155728;27;20393;-81
2022/01/02 00:29:30;;;;;;;9.23;5.75;;;11.30;99.90;;;;;;5139961;27;20554;-81
2022/01/02 00:32:16;;;;;;;13.52;6.20;;;11.30;99.90;;;;;;5155188;27;20041;-80
2022/01/02 00:35:00;;;;;;;13.65;5.80;;;11.30;99.90;;;;;;5155225;27;20113;-81
2022/01/02 00:37:44;;;;;;;13.52;6.30;;;11.30;99.90;;;;;;5155330;27;20038;-81
2022/01/02 00:40:31;;;;;;;25.08;11.18;;;11.30;99.90;;;;;;5155244;27;20135;-81
2022/01/02 00:43:22;;;;;;;15.40;8.95;;;11.30;99.90;;;;;;5155096;27;20080;-82
2022/01/02 00:46:10;;;;;;;15.68;7.25;;;11.40;99.90;;;;;;5155049;27;20091;-81
2022/01/02 00:49:03;;;;;;;14.05;6.78;;;11.30;99.90;;;;;;5155322;27;20131;-82
2022/01/02 00:51:53;;;;;;;14.43;6.75;;;11.30;99.90;;;;;;5155339;27;20083;-82
2022/01/02 00:54:43;;;;;;;16.10;7.55;;;11.30;99.90;;;;;;5155331;27;20060;-81
2022/01/02 00:57:34;;;;;;;13.55;6.07;;;11.30;99.90;;;;;;5154747;27;20052;-82
2022/01/02 01:00:19;;;;;;;14.05;7.05;;;11.30;99.90;;;;;;5154699;27;20551;-81
2022/01/02 01:03:08;;;;;;;13.85;6.43;;;11.30;99.90;;;;;;5155246;27;20050;-82
2022/01/02 01:05:54;;;;;;;14.05;6.55;;;11.30;99.90;;;;;;5155037;27;20058;-81
2022/01/02 01:08:40;;;;;;;10.80;6.10;;;11.30;99.90;;;;;;5139402;27;20421;-81
2022/01/02 01:11:30;;;;;;;14.38;6.43;;;11.40;99.90;;;;;;5154430;27;20041;-82
2022/01/02 01:14:14;;;;;;;14.48;6.95;;;11.30;99.90;;;;;;5138742;27;20069;-81
2022/01/02 01:16:59;;;;;;;14.18;7.20;;;11.40;99.90;;;;;;5154777;27;20050;-81
2022/01/02 01:19:44;;;;;;;16.75;7.03;;;11.40;99.90;;;;;;5154712;27;20406;-82
2022/01/02 01:22:28;;;;;;;12.43;6.07;;;11.40;99.90;;;;;;5154355;27;20042;-82
2022/01/02 01:25:17;;;;;;;12.98;6.45;;;11.40;99.90;;;;;;5154104;27;20033;-82
2022/01/02 01:28:02;;;;;;;14.55;6.93;;;11.40;99.90;;;;;;5154669;27;20052;-82
2022/01/02 01:30:48;;;;;;;11.63;6.45;;;11.30;99.90;;;;;;5154476;27;20091;-82
2022/01/02 01:33:32;;;;;;;14.23;6.55;;;11.40;99.90;;;;;;5154101;27;20045;-82
2022/01/02 01:36:16;;;;;;;15.40;6.68;;;11.40;99.90;;;;;;5154155;27;20535;-81
2022/01/02 01:39:01;;;;;;;17.30;6.63;;;11.30;99.90;;;;;;5154443;27;20038;-82
2022/01/02 01:41:46;;;;;;;18.75;7.22;;;11.40;99.90;;;;;;5138806;27;20041;-82
2022/01/02 01:45:02;;;;;;;18.75;10.75;;;11.60;99.90;;;;;;5154003;27;20458;-82
2022/01/02 01:47:48;;;;;;;15.98;7.03;;;11.30;99.90;;;;;;5154056;27;20064;-82
2022/01/02 01:50:37;;;;;;;16.10;7.50;;;11.30;99.90;;;;;;5153846;27;20340;-82
2022/01/02 01:53:21;;;;;;;14.60;7.22;;;11.30;99.90;;;;;;5153933;27;20034;-83
2022/01/02 01:56:06;;;;;;;11.05;6.65;;;11.20;99.90;;;;;;5138678;27;20057;-83
2022/01/02 01:58:50;;;;;;;14.30;7.57;;;11.30;99.90;;;;;;5154300;27;20494;-83
2022/01/02 02:01:34;;;;;;;15.43;8.00;;;11.20;99.90;;;;;;5138215;27;20045;-83
2022/01/02 02:04:18;;;;;;;15.20;8.15;;;11.50;99.90;;;;;;5138187;27;20625;-82
2022/01/02 02:07:03;;;;;;;18.08;7.72;;;11.20;99.90;;;;;;5154172;27;20046;-83
2022/01/02 02:12:31;;;;;;;;;;;11.20;99.90;;;;;;5154097;27;20049;-83
2022/01/02 02:15:16;;;;;;;14.55;8.13;;;11.20;99.90;;;;;;5154267;27;19918;-83
2022/01/02 02:18:01;;;;;;;21.35;8.57;;;11.20;99.90;;;;;;5153011;27;20087;-83
2022/01/02 02:20:45;;;;;;;14.35;7.38;;;11.10;99.90;;;;;;5154111;27;20046;-83
2022/01/02 02:23:29;;;;;;;16.13;8.70;;;11.10;99.90;;;;;;5153638;27;20046;-83
2022/01/02 02:26:13;;;;;;;15.55;7.65;;;11.20;99.90;;;;;;5153981;27;20397;-83
2022/01/02 02:28:57;;;;;;;17.95;8.30;;;11.10;99.90;;;;;;5153958;27;20517;-83
2022/01/02 02:31:42;;;;;;;13.18;7.60;;;11.10;99.90;;;;;;5153427;27;20087;-83
2022/01/02 02:34:26;;;;;;;16.90;7.40;;;11.10;99.90;;;;;;5153564;27;20492;-83
2022/01/02 02:37:10;;;;;;;19.35;7.82;;;11.20;99.90;;;;;;5153929;27;20041;-83
2022/01/02 02:39:55;;;;;;;17.00;8.20;;;11.10;99.90;;;;;;5153910;27;20134;-83
2022/01/02 02:42:53;;;;;;;12.65;7.68;;;11.10;99.90;;;;;;5153417;27;20459;-83
2022/01/02 02:54:35;;;;;;;22.23;8.05;;;11.10;99.90;;;;;;5153236;27;20092;-83
2022/01/02 02:57:19;;;;;;;13.63;6.60;;;11.10;99.90;;;;;;5153692;27;20418;-83
2022/01/02 03:00:05;;;;;;;20.33;8.43;;;11.10;99.90;;;;;;5125952;27;20131;-83
2022/01/02 03:02:49;;;;;;;16.30;7.47;;;11.20;99.90;;;;;;5157386;27;20038;-83
2022/01/02 03:05:33;;;;;;;17.10;7.55;;;11.20;99.90;;;;;;5156941;27;20082;-83
2022/01/02 03:08:18;;;;;;;18.80;8.52;;;11.20;99.90;;;;;;5157390;27;20403;-83
2022/01/02 03:11:04;;;;;;;18.30;7.28;;;11.20;99.90;;;;;;5157207;27;20042;-83
2022/01/02 03:13:51;;;;;;;19.30;7.93;;;11.10;99.90;;;;;;5156786;27;20076;-83
2022/01/02 03:16:35;;;;;;;24.08;8.10;;;11.20;99.90;;;;;;5156830;27;20053;-83
2022/01/02 03:19:19;;;;;;;20.05;7.90;;;11.20;99.90;;;;;;5141508;27;20561;-83
2022/01/02 03:22:05;;;;;;;;;;;11.30;99.90;;;;;;5141883;27;20053;-83
2022/01/02 03:24:52;;;;;;;14.48;6.70;;;11.20;99.90;;;;;;5140890;27;20278;-83
2022/01/02 03:27:36;;;;;;;18.20;7.82;;;11.20;99.90;;;;;;5156497;27;20385;-83
2022/01/02 03:30:20;;;;;;;;;;;11.20;99.90;;;;;;5157261;27;20091;-83
2022/01/02 03:33:04;;;;;;;16.70;8.00;;;11.20;99.90;;;;;;5156811;27;19955;-83
2022/01/02 03:35:48;;;;;;;21.02;7.82;;;11.20;99.90;;;;;;5140697;27;20091;-83
2022/01/02 03:38:32;;;;;;;20.17;8.10;;;11.20;99.90;;;;;;5156290;27;20061;-83
2022/01/02 03:41:17;;;;;;;16.02;8.10;;;11.20;99.90;;;;;;5157130;27;20080;-83
2022/01/02 03:44:00;;;;;;;22.02;7.78;;;11.30;99.90;;;;;;5156839;27;20126;-83
2022/01/02 03:46:44;;;;;;;;;;;11.20;99.90;;;;;;5156640;27;20050;-83
2022/01/02 03:49:29;;;;;;;15.88;7.60;;;11.20;99.90;;;;;;5140788;27;19935;-83
2022/01/02 03:52:13;;;;;;;23.40;8.27;;;11.30;99.90;;;;;;5156480;27;20049;-83
2022/01/02 03:54:57;;;;;;;24.67;7.15;;;11.20;99.90;;;;;;5156113;27;20072;-83
2022/01/02 03:57:41;;;;;;;20.13;7.20;;;11.30;99.90;;;;;;5140277;27;20525;-82
2022/01/02 04:00:26;;;;;;;20.02;7.68;;;11.30;99.90;;;;;;5140762;27;20126;-82
2022/01/02 04:03:10;;;;;;;18.65;7.57;;;11.30;99.90;;;;;;5156249;27;20057;-83
2022/01/02 04:05:54;;;;;;;18.33;6.65;;;11.30;99.90;;;;;;5152292;27;20398;-83
2022/01/02 04:08:38;;;;;;;13.23;6.60;;;11.40;99.90;;;;;;5155257;27;20211;-83
2022/01/02 04:11:22;;;;;;;14.85;6.60;;;11.40;99.90;;;;;;5155972;27;20045;-83
2022/01/02 04:14:06;;;;;;;;;;;11.30;99.90;;;;;;5140761;27;20062;-83
2022/01/02 04:16:51;;;;;;;17.92;7.57;;;11.40;99.90;;;;;;5155574;27;19918;-84
2022/01/02 04:19:35;;;;;;;17.40;6.78;;;11.30;99.90;;;;;;5139958;27;20562;-84
2022/01/02 04:22:19;;;;;;;;;;;11.30;99.90;;;;;;5155999;27;20103;-86
2022/01/02 04:25:04;;;;;;;17.85;7.85;;;11.30;99.90;;;;;;5139100;27;19918;-85
2022/01/02 04:27:48;;;;;;;21.15;7.03;;;11.30;99.90;;;;;;5139767;27;20140;-85
2022/01/02 04:30:32;;;;;;;;;;;11.30;99.90;;;;;;5119210;27;20521;-85
2022/01/02 04:33:16;;;;;;;18.10;7.00;;;11.30;99.90;;;;;;5134233;27;19926;-86
2022/01/02 04:36:03;;;;;;;;;;;11.30;99.90;;;;;;5134670;27;20084;-86
2022/01/02 04:38:47;;;;;;;16.50;7.15;;;11.30;99.90;;;;;;5118527;27;20366;-87
2022/01/02 04:41:31;;;;;;;20.05;6.85;;;11.30;99.90;;;;;;5134712;27;20078;-86
2022/01/02 04:44:15;;;;;;;;;;;11.30;99.90;;;;;;5134708;27;20065;-85
2022/01/02 04:47:00;;;;;;;17.00;6.38;;;11.20;99.90;;;;;;5134216;27;20374;-86
2022/01/02 04:49:44;;;;;;;19.58;7.22;;;11.30;99.90;;;;;;5134105;27;20406;-86
2022/01/02 04:52:28;;;;;;;22.17;6.60;;;11.30;99.90;;;;;;5134177;27;20046;-86
2022/01/02 04:55:12;;;;;;;15.50;6.57;;;11.30;99.90;;;;;;5134169;27;20078;-86
2022/01/02 04:57:56;;;;;;;19.85;5.75;;;11.30;99.90;;;;;;5133530;27;20101;-86
2022/01/02 05:00:40;;;;;;;16.52;6.50;;;11.30;99.90;;;;;;5117251;27;20065;-86
2022/01/02 05:03:24;;;;;;;18.40;6.53;;;11.30;99.90;;;;;;5116893;27;20058;-86
2022/01/02 05:06:10;;;;;;;20.70;5.80;;;11.40;99.90;;;;;;5118682;27;20108;-86
2022/01/02 05:08:54;;;;;;;18.17;6.22;;;11.40;99.90;;;;;;5117964;27;20124;-86
2022/01/02 05:11:38;;;;;;;17.23;5.90;;;11.40;99.90;;;;;;5154047;27;20491;-86
2022/01/02 05:14:22;;;;;;;17.67;6.20;;;11.40;99.90;;;;;;5153830;27;20090;-87
2022/01/02 05:17:07;;;;;;;16.73;5.70;;;11.40;99.90;;;;;;5138661;27;20100;-86
2022/01/02 05:19:51;;;;;;;19.73;5.35;;;11.50;99.90;;;;;;5138294;27;20042;-86
2022/01/02 05:22:37;;;;;;;17.25;5.70;;;11.40;99.90;;;;;;5154020;27;20444;-86
2022/01/02 05:25:22;;;;;;;15.73;6.07;;;11.50;99.90;;;;;;5154537;27;20436;-86
2022/01/02 05:28:06;;;;;;;16.35;6.45;;;11.50;99.90;;;;;;5153771;27;20038;-86
2022/01/02 05:30:51;;;;;;;15.45;5.28;;;11.50;99.90;;;;;;5138016;27;20041;-86
2022/01/02 05:33:35;;;;;;;13.35;5.35;;;11.50;99.90;;;;;;5138754;27;20180;-86
2022/01/02 05:36:19;;;;;;;17.27;7.20;;;11.50;99.90;;;;;;5154201;27;20122;-86
2022/01/02 05:39:04;;;;;;;15.00;5.57;;;11.50;99.90;;;;;;5153587;27;20102;-85
2022/01/02 05:41:50;;;;;;;13.38;4.70;;;11.50;99.90;;;;;;5153616;27;20046;-85
2022/01/02 05:44:34;;;;;;;16.13;5.38;;;11.50;99.90;;;;;;5154320;27;20486;-86
2022/01/02 05:47:19;;;;;;;17.90;5.43;;;11.50;99.90;;;;;;5138438;27;20091;-86
2022/01/02 05:50:03;;;;;;;16.50;5.50;;;11.50;99.90;;;;;;5153421;27;20175;-86
2022/01/02 05:52:47;;;;;;;18.95;5.63;;;11.50;99.90;;;;;;5153706;27;20046;-84
2022/01/02 05:55:32;;;;;;;15.38;5.55;;;11.50;99.90;;;;;;5154178;27;20554;-86
2022/01/02 05:58:16;;;;;;;;;;;11.50;99.90;;;;;;5138710;27;20042;-87
2022/01/02 06:01:00;;;;;;;13.57;5.22;;;11.50;99.90;;;;;;5137779;27;19918;-87
2022/01/02 06:03:45;;;;;;;19.13;5.38;;;11.50;99.90;;;;;;5138397;27;20135;-86
2022/01/02 06:06:29;;;;;;;15.05;5.63;;;11.50;99.90;;;;;;5138414;27;20127;-87
2022/01/02 06:09:13;;;;;;;;;;;11.50;99.90;;;;;;5138282;27;20515;-87
2022/01/02 06:11:57;;;;;;;22.05;5.38;;;11.50;99.90;;;;;;5153342;27;20412;-87
2022/01/02 06:14:41;;;;;;;;;;;11.60;99.90;;;;;;5154288;27;20042;-87
2022/01/02 06:17:26;;;;;;;19.33;5.22;;;11.60;99.90;;;;;;5153995;27;20322;-86
2022/01/02 06:20:10;;;;;;;18.25;5.20;;;11.60;99.90;;;;;;5153208;27;20260;-86
2022/01/02 06:22:55;;;;;;;21.08;4.88;;;11.60;99.90;;;;;;5137430;27;20159;-86
2022/01/02 06:25:39;;;;;;;11.05;4.75;;;11.70;99.90;;;;;;5153731;27;20095;-86
2022/01/02 06:28:23;;;;;;;11.00;3.95;;;11.70;99.90;;;;;;5138204;27;20123;-88
2022/01/02 06:31:09;;;;;;;17.05;4.68;;;11.80;99.90;;;;;;5137304;27;20042;-86
2022/01/02 06:33:53;;;;;;;14.55;3.95;;;11.80;99.90;;;;;;5153804;27;20050;-84
2022/01/02 06:36:37;;;;;;;14.48;4.25;;;11.80;99.90;;;;;;5142083;27;20470;-88
2022/01/02 06:39:21;;;;;;;12.48;4.63;;;11.80;99.90;;;;;;5157574;27;20118;-87
2022/01/02 06:42:06;;;;;;;19.45;4.57;;;11.90;99.90;;;;;;5156981;27;20061;-87
2022/01/02 06:44:50;;;;;;;14.15;3.78;;;11.80;99.90;;;;;;5127429;27;20087;-86
2022/01/02 06:47:34;;;;;;;13.43;4.03;;;11.90;99.90;;;;;;5157501;27;20390;-86
2022/01/02 06:50:18;;;;;;;15.63;4.30;;;11.90;99.90;;;;;;5141208;27;20081;-87
2022/01/02 06:53:02;;;;;;;8.85;3.47;;;12.00;99.90;;;;;;5156780;27;20050;-87
2022/01/02 06:55:47;;;;;;;11.65;3.67;;;11.90;99.90;;;;;;5126894;27;20097;-87
2022/01/02 06:58:31;;;;;;;13.43;3.38;;;12.00;99.90;;;;;;5157483;27;20095;-87
2022/01/02 07:01:15;;;;;;;13.60;3.85;;;12.00;99.90;;;;;;5156608;27;20746;-88
2022/01/02 07:04:00;;;;;;;8.57;3.20;;;12.00;99.90;;;;;;5156467;27;20493;-87
2022/01/02 07:06:44;;;;;;;11.52;3.08;;;12.00;99.90;;;;;;5141379;27;20460;-86
2022/01/02 07:09:30;;;;;;;10.40;3.03;;;12.00;99.90;;;;;;5141334;27;20399;-86
2022/01/02 07:12:14;;;;;;;9.65;3.65;;;12.00;99.90;;;;;;5141179;27;20050;-88
2022/01/02 07:14:58;;;;;;;11.23;3.40;;;12.00;99.90;;;;;;5156554;27;20452;-87
2022/01/02 07:17:43;;;;;;;10.13;3.10;;;12.10;99.90;;;;;;5141265;27;20488;-87
2022/01/02 07:20:27;;;;;;;17.35;3.42;;;12.10;99.90;;;;;;5156938;27;20130;-87
2022/01/02 07:23:11;;;;;;;9.13;3.38;;;12.10;99.90;;;;;;5126084;27;20496;-87
2022/01/02 07:25:56;;;;;;;13.02;3.33;;;12.00;99.90;;;;;;5141300;27;20172;-87
2022/01/02 07:28:40;;;;;;;;;;;12.00;99.90;;;;;;5157164;27;20497;-87
2022/01/02 07:31:24;;;;;;;12.52;4.22;;;12.00;99.90;;;;;;5156053;27;20304;-87
2022/01/02 07:34:08;;;;;;;9.98;3.53;;;11.90;99.90;;;;;;5156004;27;20046;-87
2022/01/02 07:36:52;;;;;;;14.35;4.35;;;11.90;99.90;;;;;;5156495;27;20079;-87
2022/01/02 07:39:36;;;;;;;15.00;3.83;;;11.90;99.90;;;;;;5156616;27;20126;-87
2022/01/02 07:42:20;;;;;;;10.90;3.67;;;11.90;99.90;;;;;;5140127;27;20456;-86
2022/01/02 07:45:05;;;;;;;15.52;4.18;;;11.90;99.90;;;;;;5155106;27;20123;-84
2022/01/02 07:47:49;;;;;;;11.40;3.90;;;11.80;99.90;;;;;;5140649;27;20541;-87
2022/01/02 07:50:33;;;;;;;8.15;3.95;;;11.80;99.90;;;;;;5140544;27;20092;-86
2022/01/02 07:53:17;;;;;;;11.68;4.30;;;11.80;99.90;;;;;;5155585;27;20042;-86
2022/01/02 07:56:02;;;;;;;9.32;3.60;;;11.80;99.90;;;;;;5140584;27;20057;-85
2022/01/02 07:58:46;;;;;;;11.00;3.70;;;11.70;99.90;;;;;;5140541;27;20124;-87
2022/01/02 08:01:31;;;;;;;15.85;4.80;;;11.70;99.90;;;;;;5140388;27;20041;-87
2022/01/02 08:04:15;;;;;;;8.75;3.67;;;11.70;99.90;;;;;;5155454;27;20121;-87
2022/01/02 08:06:59;;;;;;;8.75;3.67;;;11.70;99.90;;;;;;5140102;27;20056;-86
2022/01/02 08:09:43;;;;;;;10.32;4.10;;;11.70;99.90;;;;;;5154612;27;20174;-88
2022/01/02 08:12:27;;;;;;;13.02;3.70;;;11.70;99.90;;;;;;5154062;27;20077;-88
2022/01/02 08:15:11;;;;;;;16.35;4.43;;;11.70;99.90;;;;;;5154684;27;20531;-89
2022/01/02 08:17:55;;;;;;;11.52;4.28;;;11.70;99.90;;;;;;5140165;27;20452;-89
2022/01/02 08:20:40;;;;;;;;;;;11.70;99.90;;;;;;5156095;27;20045;-90
2022/01/02 08:23:25;;;;;;;11.63;4.35;;;11.60;99.90;;;;;;5155132;27;20095;-89
2022/01/02 08:26:09;;;;;;;12.10;3.85;;;11.60;99.90;;;;;;5139681;27;20045;-85
2022/01/02 08:28:54;;;;;;;13.07;4.72;;;11.60;99.90;;;;;;5155913;27;20160;-91
2022/01/02 08:31:40;;;;;;;7.88;3.88;;;11.50;99.90;;;;;;5140412;27;20067;-91
2022/01/02 08:34:24;;;;;;;10.95;4.78;;;11.50;99.90;;;;;;5155337;27;20037;-92
2022/01/02 08:37:08;;;;;;;10.98;4.35;;;11.50;99.90;;;;;;5140712;27;20084;-88
2022/01/02 08:39:52;;;;;;;11.05;4.68;;;11.50;99.90;;;;;;5140617;27;20083;-91
2022/01/02 08:42:37;;;;;;;10.88;4.43;;;11.50;99.90;;;;;;5156065;27;20083;-93
2022/01/02 08:45:21;;;;;;;11.07;4.32;;;11.50;99.90;;;;;;5155787;27;20067;-93
2022/01/02 08:48:06;;;;;;;8.45;4.35;;;11.40;99.90;;;;;;5140347;27;20034;-93
2022/01/02 08:50:50;;;;;;;13.35;4.25;;;11.40;99.90;;;;;;5139961;27;20408;-93
2022/01/02 08:53:37;;;;;;;9.80;4.60;;;11.40;99.90;;;;;;5155331;27;20038;-91
2022/01/02 08:56:22;;;;;;;14.27;5.47;;;11.40;99.90;;;;;;5138230;27;20065;-92
2022/01/02 08:59:07;;;;;;;10.75;4.35;;;11.40;99.90;;;;;;5155517;27;20114;-93
2022/01/02 09:01:51;;;;;;;11.30;4.30;;;11.40;99.90;;;;;;5139917;27;20069;-92
2022/01/02 09:04:35;;;;;;;11.88;4.68;;;11.40;99.90;;;;;;5154959;27;20059;-95
2022/01/02 09:07:20;;;;;;;13.15;4.85;;;11.30;99.90;;;;;;5139440;27;20045;-93
2022/01/02 09:10:04;;;;;;;11.15;4.90;;;11.20;99.90;;;;;;5156291;27;20042;-96
2022/01/02 09:12:49;;;;;;;12.00;4.75;;;11.30;99.90;;;;;;5161611;27;20049;-94
2022/01/02 09:15:34;;;;;;;8.30;4.07;;;11.20;99.90;;;;;;5133974;27;20091;-92
2022/01/02 09:18:18;;;;;;;14.45;4.70;;;11.20;99.90;;;;;;5146150;27;20045;-87
2022/01/02 09:21:02;;;;;;;12.35;4.68;;;11.20;99.90;;;;;;5164102;27;20418;-93
2022/01/02 09:23:46;;;;;;;10.07;4.57;;;11.20;99.90;;;;;;5142223;27;20117;-92
2022/01/02 09:26:30;;;;;;;;;;;11.20;99.90;;;;;;5158568;27;20084;-93
2022/01/02 09:29:14;;;;;;;13.43;4.35;;;11.20;99.90;;;;;;5156054;27;19913;-94
2022/01/02 09:31:59;;;;;;;12.32;4.53;;;11.20;99.90;;;;;;5143573;27;20049;-94
2022/01/02 09:34:45;;;;;;;10.02;4.25;;;11.30;99.90;;;;;;5164065;27;20041;-95
2022/01/02 09:37:30;;;;;;;11.27;4.35;;;11.30;99.90;;;;;;5147946;27;20122;-94
2022/01/02 09:40:14;;;;;;;10.88;4.45;;;11.30;99.90;;;;;;5136307;27;20045;-94
2022/01/02 09:42:59;;;;;;;;;;;11.30;99.90;;;;;;5149763;27;20060;-96
2022/01/02 09:45:48;;;;;;;11.23;4.45;;;11.40;99.90;;;;;;5167075;27;19914;-93
2022/01/02 09:48:32;;;;;;;8.85;4.38;;;11.40;99.90;;;;;;5136448;27;20072;-95
2022/01/02 09:51:19;;;;;;;12.77;5.28;;;11.50;99.90;;;;;;5154550;27;20547;-93
2022/01/02 09:54:04;;;;;;;15.05;5.43;;;11.40;99.90;;;;;;5172320;27;20091;-94
2022/01/02 09:56:48;;;;;;;11.57;5.63;;;11.50;99.90;;;;;;5150215;27;20109;-94
2022/01/02 09:59:33;;;;;;;10.32;4.65;;;11.50;99.90;;;;;;5158329;27;20047;-94
2022/01/02 10:02:17;;;;;;;7.03;4.18;;;11.50;99.90;;;;;;5151567;27;20073;-95
2022/01/02 10:05:02;;;;;;;8.30;4.60;;;11.60;99.90;;;;;;5144668;27;20037;-93
2022/01/02 10:07:47;;;;;;;9.75;3.97;;;11.70;99.90;;;;;;5134942;27;20543;-91
2022/01/02 10:10:33;;;;;;;6.28;4.18;;;11.70;99.90;;;;;;5159570;27;20058;-93
2022/01/02 10:13:17;;;;;;;11.77;4.18;;;11.70;99.90;;;;;;5171100;27;20034;-93
2022/01/02 10:16:01;;;;;;;9.35;4.72;;;11.70;99.90;;;;;;5177426;27;20535;-96
2022/01/02 10:18:48;;;;;;;9.85;4.35;;;11.70;99.90;;;;;;5154415;22;20048;-94
2022/01/02 10:21:35;;;;;;;10.77;4.32;;;12.70;99.90;;;;;;5074562;28;20051;-95
2022/01/02 10:24:28;;;;;;;12.05;4.28;;;11.80;99.90;;;;;;5087415;28;20040;-96
2022/01/02 10:27:17;;;;;;;9.80;4.65;;;11.80;99.90;;;;;;5067170;28;20513;-94
2022/01/02 10:30:03;;;;;;;8.70;4.05;;;11.80;99.90;;;;;;5063367;28;20043;-86
2022/01/02 10:32:48;;;;;;;11.27;5.55;;;11.80;99.90;;;;;;5047722;28;20047;-92
2022/01/02 10:35:35;;;;;;;9.98;4.70;;;11.80;99.90;;;;;;5036055;28;20503;-93
2022/01/02 10:38:19;;;;;;;10.60;5.57;;;11.90;99.90;;;;;;5069526;28;20063;-93
2022/01/02 10:41:03;;;;;;;7.93;4.68;;;11.80;99.90;;;;;;5068647;28;20086;-94
2022/01/02 10:43:47;;;;;;;13.43;5.82;;;11.90;99.90;;;;;;5055204;28;20514;-94
2022/01/02 10:46:31;;;;;;;12.07;5.05;;;11.90;99.90;;;;;;5078530;28;20039;-94
2022/01/02 10:49:16;;;;;;;12.35;5.22;;;11.90;99.90;;;;;;5050320;28;20491;-94
2022/01/02 10:52:19;;;;;;;10.55;5.25;;;11.90;99.90;;;;;;5079298;28;20067;-89
2022/01/02 10:55:15;;;;;;;15.95;5.90;;;11.90;99.90;;;;;;5074359;28;20043;-95
2022/01/02 10:58:00;;;;;;;8.95;4.70;;;11.90;99.90;;;;;;5060580;28;20039;-93
2022/01/02 11:00:45;;;;;;;10.10;4.55;;;11.90;99.90;;;;;;5057324;28;20044;-92
2022/01/02 11:03:29;;;;;;;;;;;11.90;99.90;;;;;;5056843;28;20040;-89
2022/01/02 11:06:27;;;;;;;14.90;5.03;;;11.90;99.90;;;;;;5064510;28;19961;-91
2022/01/02 11:09:15;;;;;;;9.02;4.47;;;11.90;99.90;;;;;;5053735;28;20043;-86
2022/01/02 11:11:59;;;;;;;10.10;4.18;;;11.90;99.90;;;;;;5069320;28;20133;-90
2022/01/02 11:14:44;;;;;;;9.20;3.83;;;11.90;99.90;;;;;;5053056;28;20512;-92
2022/01/02 11:17:30;;;;;;;12.60;4.38;;;12.00;99.90;;;;;;5068333;28;20658;-85
2022/01/02 11:20:16;;;;;;;7.40;3.90;;;12.00;99.90;;;;;;5067242;28;20523;-89
2022/01/02 11:23:38;;;;;;;8.70;4.95;;;12.00;99.90;;;;;;5052963;28;20400;-88
2022/01/02 11:26:35;;;;;;;11.75;4.32;;;12.00;99.90;;;;;;5067960;28;20089;-85
2022/01/02 11:29:27;;;;;;;11.45;4.63;;;12.00;99.90;;;;;;5068112;28;20059;-91
2022/01/02 11:32:23;;;;;;;16.10;4.63;;;12.00;99.90;;;;;;5046719;28;20056;-92
2022/01/02 11:35:25;;;;;;;10.23;5.13;;;12.00;99.90;;;;;;5074078;28;20043;-91
2022/01/02 11:38:11;;;;;;;11.20;4.88;;;12.00;99.90;;;;;;5074665;28;20142;-90
2022/01/02 11:40:56;;;;;;;10.80;5.43;;;12.00;99.90;;;;;;5058799;28;20408;-91
2022/01/02 11:43:51;;;;;;;12.55;4.72;;;12.00;99.90;;;;;;5073826;28;20120;-91
2022/01/02 11:46:48;;;;;;;10.43;5.30;;;12.00;99.90;;;;;;5073553;28;20038;-83
2022/01/02 11:49:40;;;;;;;10.15;4.30;;;12.00;99.90;;;;;;5073726;28;20507;-90
2022/01/02 11:52:26;;;;;;;14.63;4.22;;;11.90;99.90;;;;;;5071739;28;20071;-89
2022/01/02 11:55:16;;;;;;;11.77;4.20;;;12.00;99.90;;;;;;5072775;28;20034;-89
2022/01/02 11:58:01;;;;;;;10.82;3.92;;;12.00;99.90;;;;;;5057090;28;20071;-87
2022/01/02 12:00:47;;;;;;;17.73;4.72;;;12.00;99.90;;;;;;5057319;28;20106;-89
2022/01/02 12:03:40;;;;;;;9.68;4.35;;;12.00;99.90;;;;;;5072696;28;20031;-88
2022/01/02 12:06:35;;;;;;;7.73;3.60;;;12.00;99.90;;;;;;5072609;28;20040;-89
2022/01/02 12:09:34;;;;;;;16.52;4.10;;;12.00;99.90;;;;;;5043580;28;20530;-89
2022/01/02 12:12:18;;;;;;;13.77;4.22;;;12.10;99.90;;;;;;5072520;28;20043;-89
2022/01/02 12:15:02;;;;;;;;;;;12.00;99.90;;;;;;5072574;28;20032;-89
2022/01/02 12:18:41;;;;;;;11.77;3.05;;;12.00;99.90;;;;;;5071316;28;19938;-90
2022/01/02 12:21:25;;;;;;;13.10;3.33;;;12.00;99.90;;;;;;5072682;28;20457;-89
2022/01/02 12:24:12;;;;;;;14.02;3.67;;;11.90;99.90;;;;;;5072398;28;20094;-89
2022/01/02 12:27:07;;;;;;;17.88;4.05;;;11.90;99.90;;;;;;5051713;28;20514;-90
2022/01/02 12:29:55;;;;;;;15.27;3.33;;;11.90;99.90;;;;;;5070231;28;20036;-90
2022/01/02 12:32:41;;;;;;;13.20;3.55;;;11.90;99.90;;;;;;5071754;28;20047;-91
2022/01/02 12:35:25;;;;;;;14.80;3.58;;;11.90;99.90;;;;;;5073149;28;20081;-88
2022/01/02 12:38:10;;;;;;;12.70;3.40;;;11.90;99.90;;;;;;5057422;28;20085;-90
2022/01/02 12:40:59;;;;;;;12.77;4.28;;;11.90;99.90;;;;;;5072097;28;20051;-89
2022/01/02 12:44:01;;;;;;;17.60;4.85;;;11.90;99.90;;;;;;5056820;28;20079;-84
2022/01/02 12:46:49;;;;;;;16.88;3.33;;;11.90;99.90;;;;;;5072162;28;20384;-91
2022/01/02 12:49:36;;;;;;;14.73;3.30;;;11.90;99.90;;;;;;5072273;28;20035;-88
2022/01/02 12:52:20;;;;;;;16.50;3.65;;;11.80;99.90;;;;;;5056506;28;20046;-88
2022/01/02 12:55:08;;;;;;;;;;;11.80;99.90;;;;;;5056191;28;20435;-87
2022/01/02 12:58:03;;;;;;;9.90;2.78;;;11.80;99.90;;;;;;5071477;28;19996;-88
2022/01/02 13:00:48;;;;;;;18.08;4.40;;;11.80;99.90;;;;;;5056699;28;20043;-88
2022/01/02 13:03:32;;;;;;;;;;;11.80;99.90;;;;;;5057931;28;20047;-89
2022/01/02 13:06:20;;;;;;;13.15;3.28;;;11.80;99.90;;;;;;5044550;28;19918;-88
2022/01/02 13:09:04;;;;;;;15.52;3.50;;;11.80;99.90;;;;;;5072770;28;20060;-86
2022/01/02 13:11:49;;;;;;;10.90;2.80;;;11.70;99.90;;;;;;5057777;28;20075;-92
2022/01/02 13:14:37;;;;;;;17.02;3.55;;;11.80;99.90;;;;;;5057988;28;20535;-89
2022/01/02 13:17:21;;;;;;;16.38;3.88;;;11.70;99.90;;;;;;5073468;28;20063;-89
2022/01/02 13:20:16;;;;;;;18.13;4.07;;;11.70;99.90;;;;;;5057348;28;20103;-87
2022/01/02 13:23:00;;;;;;;16.17;3.03;;;11.70;99.90;;;;;;5072405;28;20384;-88
2022/01/02 13:25:46;;;;;;;16.77;3.75;;;11.70;99.90;;;;;;5057736;28;20602;-87
2022/01/02 13:28:31;;;;;;;10.15;2.83;;;11.60;99.90;;;;;;5072724;28;20047;-86
2022/01/02 13:31:25;;;;;;;12.60;3.72;;;11.60;99.90;;;;;;5072789;28;20071;-87
2022/01/02 13:34:24;;;;;;;12.00;2.72;;;11.50;99.90;;;;;;5072290;28;20351;-85
2022/01/02 13:37:10;;;;;;;17.85;2.92;;;11.50;99.90;;;;;;5057175;28;20063;-87
2022/01/02 13:39:54;;;;;;;9.48;2.67;;;11.50;99.90;;;;;;5057094;28;20101;-86
2022/01/02 13:42:44;;;;;;;6.80;1.92;;;11.50;99.90;;;;;;5072306;28;20086;-86
2022/01/02 13:45:33;;;;;;;10.80;2.45;;;11.40;99.90;;;;;;5057455;28;20495;-86
2022/01/02 13:48:26;;;;;;;14.32;2.40;;;11.30;99.90;;;;;;5072867;28;20043;-86
2022/01/02 13:51:16;;;;;;;13.40;2.72;;;11.30;99.90;;;;;;5072108;28;20519;-85
2022/01/02 13:54:13;;;;;;;8.57;2.30;;;11.30;99.90;;;;;;5072165;28;20047;-85
2022/01/02 13:56:59;;;;;;;10.95;2.85;;;11.30;99.90;;;;;;5059015;28;20094;-85
2022/01/02 13:59:44;;;;;;;7.85;2.38;;;11.20;99.90;;;;;;5072597;28;20041;-85
2022/01/02 14:02:38;;;;;;;11.70;2.17;;;11.20;99.90;;;;;;5057527;28;20192;-86
2022/01/02 14:05:43;;;;;;;14.00;3.03;;;11.20;99.90;;;;;;5057329;28;20040;-87
2022/01/02 14:08:27;;;;;;;11.43;2.47;;;11.20;99.90;;;;;;5057423;28;20538;-85
2022/01/02 14:11:20;;;;;;;10.88;2.10;;;11.10;99.90;;;;;;5071742;28;20044;-84
2022/01/02 14:14:17;;;;;;;9.88;2.00;;;11.10;99.90;;;;;;5072188;28;20044;-86
2022/01/02 14:19:50;;;;;;;7.38;1.55;;;11.10;99.90;;;;;;5056908;28;20064;-86
2022/01/02 14:22:36;;;;;;;;;;;11.10;99.90;;;;;;5072580;28;20090;-85
2022/01/02 14:25:20;;;;;;;13.07;2.30;;;11.00;99.90;;;;;;5071783;28;19939;-84
2022/01/02 14:28:04;;;;;;;8.65;1.90;;;11.00;99.90;;;;;;5071784;28;20082;-85
2022/01/02 14:30:50;;;;;;;8.23;2.75;;;10.90;99.90;;;;;;5057181;28;20098;-85
2022/01/02 14:33:34;;;;;;;8.15;1.90;;;10.90;99.90;;;;;;5072195;28;20050;-86
2022/01/02 14:36:18;;;;;;;11.30;1.88;;;11.00;99.90;;;;;;5056552;28;20113;-86
2022/01/02 14:39:07;;;;;;;;;;;10.80;99.90;;;;;;5072142;28;20090;-84